createdAt,value
2017-07-18T00:01:05.905Z,73.10
2017-07-18T00:03:40.492Z,73.70
2017-07-18T00:06:14.414Z,73.50
2017-07-18T00:08:48.268Z,73.60
2017-07-18T00:11:22.132Z,73.70
2017-07-18T00:13:56.015Z,73.30
2017-07-18T00:16:29.808Z,73.70
2017-07-18T00:19:04.397Z,73.00
2017-07-18T00:21:38.339Z,72.70
2017-07-18T00:24:12.338Z,73.10
2017-07-18T00:26:47.262Z,73.50
2017-07-18T00:29:21.958Z,73.80
2017-07-18T00:31:56.876Z,73.60
2017-07-18T00:34:30.899Z,74.40
2017-07-18T00:37:05.460Z,76.20
2017-07-18T00:39:40.181Z,76.00
2017-07-18T00:42:14.251Z,75.20
2017-07-18T00:44:48.061Z,75.80
2017-07-18T00:47:22.954Z,76.90
2017-07-18T00:49:57.026Z,76.40
2017-07-18T00:52:30.687Z,76.60
2017-07-18T00:55:04.432Z,76.50
2017-07-18T00:57:40.277Z,76.10
2017-07-18T01:00:14.316Z,76.10
2017-07-18T01:02:48.019Z,76.80
2017-07-18T01:05:22.298Z,76.30
2017-07-18T01:10:36.445Z,75.20
2017-07-18T01:13:10.300Z,76.20
2017-07-18T01:15:44.063Z,75.30
2017-07-18T01:18:17.847Z,74.40
2017-07-18T01:20:51.586Z,74.20
2017-07-18T01:23:25.551Z,74.00
2017-07-18T01:25:59.727Z,73.90
2017-07-18T01:28:33.801Z,74.30
2017-07-18T01:31:07.838Z,74.40
2017-07-18T01:33:41.704Z,75.40
2017-07-18T01:36:15.575Z,76.10
2017-07-18T01:38:49.481Z,75.50
2017-07-18T01:41:24.319Z,74.90
2017-07-18T01:43:58.104Z,74.80
2017-07-18T01:46:32.011Z,75.20
2017-07-18T01:49:05.725Z,75.00
2017-07-18T01:51:39.767Z,75.10
2017-07-18T01:54:14.260Z,75.20
2017-07-18T01:59:28.237Z,75.50
2017-07-18T02:02:02.008Z,75.20
2017-07-18T02:07:35.478Z,75.50
2017-07-18T02:10:12.862Z,75.10
2017-07-18T02:12:46.867Z,74.70
2017-07-18T02:15:20.830Z,74.90
2017-07-18T02:17:54.613Z,75.10
2017-07-18T02:20:28.544Z,75.20
2017-07-18T02:25:59.551Z,74.40
2017-07-18T02:28:34.087Z,74.70
2017-07-18T02:31:08.665Z,75.00
2017-07-18T02:33:43.127Z,75.90
2017-07-18T02:36:17.988Z,75.70
2017-07-18T02:38:51.791Z,76.00
2017-07-18T02:41:25.537Z,75.00
2017-07-18T02:43:59.114Z,75.30
2017-07-18T02:46:33.031Z,75.00
2017-07-18T02:49:06.837Z,75.60
2017-07-18T02:51:41.572Z,75.80
2017-07-18T02:54:16.018Z,77.40
2017-07-18T02:56:50.027Z,78.10
2017-07-18T02:59:23.844Z,77.70
2017-07-18T03:01:57.936Z,75.80
2017-07-18T03:04:32.517Z,76.20
2017-07-18T03:07:07.266Z,76.60
2017-07-18T03:09:41.018Z,76.50
2017-07-18T03:12:14.828Z,76.60
2017-07-18T03:14:49.561Z,76.60
2017-07-18T03:17:23.281Z,76.40
2017-07-18T03:19:57.200Z,76.60
2017-07-18T03:22:31.808Z,76.30
2017-07-18T03:25:05.733Z,76.10
2017-07-18T03:27:42.286Z,75.80
2017-07-18T03:30:17.025Z,75.60
2017-07-18T03:32:52.563Z,75.40
2017-07-18T03:35:26.740Z,75.40
2017-07-18T03:38:00.544Z,75.20
2017-07-18T03:40:34.544Z,75.40
2017-07-18T03:43:08.392Z,75.60
2017-07-18T03:45:42.272Z,76.30
2017-07-18T03:48:16.195Z,76.90
2017-07-18T03:50:50.212Z,76.50
2017-07-18T03:53:24.236Z,76.70
2017-07-18T03:55:58.282Z,76.60
2017-07-18T03:58:32.729Z,77.50
2017-07-18T04:01:06.790Z,77.10
2017-07-18T04:03:41.518Z,77.20
2017-07-18T04:06:15.868Z,77.70
2017-07-18T04:08:51.475Z,77.60
2017-07-18T04:11:25.702Z,76.80
2017-07-18T04:13:59.596Z,77.00
2017-07-18T04:16:33.829Z,77.40
2017-07-18T04:19:07.882Z,76.80
2017-07-18T04:21:41.787Z,77.90
2017-07-18T04:24:16.300Z,78.90
2017-07-18T04:26:50.015Z,78.80
2017-07-18T04:29:23.763Z,78.40
2017-07-18T04:32:00.978Z,79.20
2017-07-18T04:34:34.901Z,78.60
2017-07-18T04:37:08.954Z,77.80
2017-07-18T04:39:45.523Z,78.10
2017-07-18T04:42:19.498Z,78.10
2017-07-18T04:44:54.221Z,77.90
2017-07-18T04:47:28.000Z,77.80
2017-07-18T04:50:02.153Z,77.90
2017-07-18T04:52:36.055Z,77.60
2017-07-18T04:55:10.126Z,76.00
2017-07-18T04:57:47.650Z,77.00
2017-07-18T05:00:21.717Z,78.10
2017-07-18T05:02:56.327Z,73.30
2017-07-18T05:05:30.714Z,72.60
2017-07-18T05:08:04.645Z,75.80
2017-07-18T05:10:40.130Z,75.30
2017-07-18T05:13:14.377Z,77.40
2017-07-18T05:15:50.780Z,73.20
2017-07-18T05:18:24.474Z,73.10
2017-07-18T05:23:56.515Z,76.20
2017-07-18T05:26:30.410Z,75.20
2017-07-18T05:29:04.587Z,77.40
2017-07-18T05:31:40.575Z,76.90
2017-07-18T05:34:14.440Z,77.20
2017-07-18T05:36:50.873Z,77.40
2017-07-18T05:39:24.550Z,76.60
2017-07-18T05:41:59.220Z,77.70
2017-07-18T05:44:33.197Z,77.60
2017-07-18T05:47:06.978Z,77.60
2017-07-18T05:49:41.523Z,77.30
2017-07-18T05:52:15.525Z,76.10
2017-07-18T05:54:49.307Z,76.70
2017-07-18T05:57:23.035Z,76.60
2017-07-18T05:59:56.944Z,75.30
2017-07-18T06:02:32.409Z,73.60
2017-07-18T06:05:06.809Z,73.80
2017-07-18T06:07:41.447Z,72.20
2017-07-18T06:10:16.046Z,74.70
2017-07-18T06:12:51.366Z,74.70
2017-07-18T06:15:28.763Z,75.20
2017-07-18T06:18:02.610Z,73.90
2017-07-18T06:20:36.477Z,74.70
2017-07-18T06:23:11.195Z,72.90
2017-07-18T06:25:45.235Z,72.80
2017-07-18T06:28:19.748Z,71.10
2017-07-18T06:30:54.742Z,71.20
2017-07-18T06:33:29.308Z,71.20
2017-07-18T06:36:03.231Z,70.90
2017-07-18T06:38:39.089Z,71.00
2017-07-18T06:41:13.243Z,70.90
2017-07-18T06:43:48.671Z,71.00
2017-07-18T06:46:22.733Z,70.60
2017-07-18T06:48:59.257Z,70.20
2017-07-18T06:51:33.141Z,71.00
2017-07-18T06:54:10.835Z,71.10
2017-07-18T06:56:44.474Z,70.00
2017-07-18T06:59:21.269Z,69.80
2017-07-18T07:01:55.193Z,69.80
2017-07-18T07:04:31.818Z,69.40
2017-07-18T07:07:09.146Z,69.30
2017-07-18T07:09:43.363Z,70.10
2017-07-18T07:12:17.183Z,68.80
2017-07-18T07:17:48.255Z,68.20
2017-07-18T07:20:22.497Z,68.20
2017-07-18T07:22:57.279Z,67.20
2017-07-18T07:25:30.898Z,65.80
2017-07-18T07:28:09.352Z,68.40
2017-07-18T07:30:43.145Z,67.30
2017-07-18T07:33:23.026Z,65.40
2017-07-18T07:35:57.074Z,65.10
2017-07-18T07:38:31.062Z,64.40
2017-07-18T07:41:08.727Z,65.80
2017-07-18T07:43:42.831Z,64.50
2017-07-18T07:46:17.644Z,64.50
2017-07-18T07:48:52.259Z,63.30
2017-07-18T07:51:29.905Z,65.80
2017-07-18T07:54:08.472Z,65.70
2017-07-18T07:56:43.509Z,63.80
2017-07-18T07:59:19.884Z,63.60
2017-07-18T08:01:53.743Z,63.30
2017-07-18T08:04:29.454Z,62.70
2017-07-18T08:07:03.413Z,63.70
2017-07-18T08:09:38.473Z,62.90
2017-07-18T08:12:12.205Z,62.20
2017-07-18T08:14:46.985Z,62.80
2017-07-18T08:17:20.679Z,62.60
2017-07-18T08:19:57.157Z,62.90
2017-07-18T08:22:32.298Z,62.80
2017-07-18T08:25:06.020Z,60.50
2017-07-18T08:27:39.597Z,61.90
2017-07-18T08:30:13.339Z,60.00
2017-07-18T08:32:47.040Z,56.80
2017-07-18T08:35:20.808Z,57.10
2017-07-18T08:37:56.046Z,58.50
2017-07-18T08:40:30.501Z,55.70
2017-07-18T08:43:04.070Z,55.70
2017-07-18T08:45:38.443Z,56.20
2017-07-18T08:48:13.856Z,57.80
2017-07-18T08:50:48.736Z,56.30
2017-07-18T08:53:23.569Z,56.50
2017-07-18T08:55:59.006Z,56.10
2017-07-18T08:58:34.367Z,55.10
2017-07-18T09:01:08.427Z,55.50
2017-07-18T09:03:42.582Z,56.10
2017-07-18T09:06:16.901Z,56.60
2017-07-18T09:08:52.526Z,53.70
2017-07-18T09:11:27.987Z,52.40
2017-07-18T09:14:01.767Z,52.30
2017-07-18T09:16:35.548Z,52.90
2017-07-18T09:19:09.459Z,51.90
2017-07-18T09:21:43.391Z,53.00
2017-07-18T09:24:17.228Z,52.20
2017-07-18T09:26:51.506Z,54.10
2017-07-18T09:29:25.849Z,51.70
2017-07-18T09:32:00.083Z,51.00
2017-07-18T09:34:34.139Z,50.60
2017-07-18T09:37:08.116Z,52.40
2017-07-18T09:39:43.351Z,51.20
2017-07-18T09:42:17.333Z,51.20
2017-07-18T09:44:52.196Z,53.30
2017-07-18T09:47:26.787Z,51.30
2017-07-18T09:50:00.853Z,51.80
2017-07-18T09:52:36.178Z,52.50
2017-07-18T09:55:10.757Z,51.80
2017-07-18T09:57:45.496Z,52.10
2017-07-18T10:00:20.067Z,51.90
2017-07-18T10:02:53.817Z,51.90
2017-07-18T10:05:28.106Z,52.30
2017-07-18T10:08:01.946Z,51.40
2017-07-18T10:10:36.821Z,51.00
2017-07-18T10:13:11.566Z,50.90
2017-07-18T10:15:45.696Z,50.00
2017-07-18T10:18:21.503Z,50.20
2017-07-18T10:20:56.375Z,49.30
2017-07-18T10:23:30.603Z,48.30
2017-07-18T10:26:06.707Z,49.80
2017-07-18T10:28:41.034Z,50.00
2017-07-18T10:31:16.172Z,49.20
2017-07-18T10:33:51.737Z,48.70
2017-07-18T10:36:26.490Z,47.60
2017-07-18T10:39:01.502Z,47.50
2017-07-18T10:41:35.697Z,46.90
2017-07-18T10:44:10.170Z,47.20
2017-07-18T10:46:44.589Z,47.10
2017-07-18T10:49:18.751Z,48.00
2017-07-18T10:51:53.997Z,48.60
2017-07-18T10:54:27.923Z,47.80
2017-07-18T10:57:01.736Z,48.10
2017-07-18T10:59:36.353Z,48.10
2017-07-18T11:02:11.819Z,47.70
2017-07-18T11:04:45.713Z,47.50
2017-07-18T11:07:21.210Z,47.30
2017-07-18T11:09:55.966Z,46.90
2017-07-18T11:12:30.529Z,46.40
2017-07-18T11:15:04.677Z,46.30
2017-07-18T11:20:20.262Z,46.70
2017-07-18T11:22:54.098Z,46.60
2017-07-18T11:25:29.019Z,46.80
2017-07-18T11:28:03.019Z,46.60
2017-07-18T11:30:37.976Z,47.40
2017-07-18T11:33:13.473Z,46.00
2017-07-18T11:35:48.095Z,47.20
2017-07-18T11:38:23.086Z,46.00
2017-07-18T11:40:57.801Z,47.30
2017-07-18T11:43:31.795Z,47.10
2017-07-18T11:46:05.628Z,45.90
2017-07-18T11:48:40.290Z,44.60
2017-07-18T11:51:15.015Z,45.20
2017-07-18T11:53:49.976Z,45.00
2017-07-18T11:56:23.909Z,44.30
2017-07-18T11:58:57.893Z,45.70
2017-07-18T12:01:33.920Z,46.10
2017-07-18T12:04:08.214Z,46.00
2017-07-18T12:06:42.687Z,45.30
2017-07-18T12:09:16.716Z,44.30
2017-07-18T12:11:51.171Z,46.20
2017-07-18T12:14:25.764Z,44.40
2017-07-18T12:17:00.534Z,44.50
2017-07-18T12:19:34.651Z,45.30
2017-07-18T12:22:12.037Z,44.60
2017-07-18T12:24:45.886Z,43.50
2017-07-18T12:27:20.805Z,43.10
2017-07-18T12:29:57.992Z,43.00
2017-07-18T12:32:32.636Z,44.60
2017-07-18T12:35:07.854Z,44.50
2017-07-18T12:37:43.652Z,44.80
2017-07-18T12:40:17.669Z,44.00
2017-07-18T12:42:51.523Z,43.00
2017-07-18T12:45:25.476Z,43.10
2017-07-18T12:48:00.953Z,43.70
2017-07-18T12:50:34.917Z,43.30
2017-07-18T12:53:09.053Z,43.50
2017-07-18T12:55:43.052Z,43.90
2017-07-18T12:58:18.002Z,44.80
2017-07-18T13:00:55.196Z,43.40
2017-07-18T13:03:29.623Z,44.00
2017-07-18T13:06:03.387Z,42.70
2017-07-18T13:11:18.160Z,42.80
2017-07-18T13:13:53.456Z,42.40
2017-07-18T13:19:15.697Z,41.90
2017-07-18T13:21:49.541Z,41.90
2017-07-18T13:24:24.840Z,42.30
2017-07-18T13:27:08.605Z,42.90
2017-07-18T13:29:44.311Z,42.60
2017-07-18T13:32:18.299Z,42.90
2017-07-18T13:34:53.218Z,43.80
2017-07-18T13:37:32.918Z,43.90
2017-07-18T13:40:19.218Z,42.10
2017-07-18T13:42:56.334Z,42.00
2017-07-18T13:45:31.229Z,42.20
2017-07-18T13:48:05.445Z,41.70
2017-07-18T13:50:39.537Z,41.20
2017-07-18T13:53:15.491Z,42.40
2017-07-18T13:58:42.604Z,42.90
2017-07-18T14:01:20.159Z,42.90
2017-07-18T14:03:59.697Z,43.60
2017-07-18T14:06:35.861Z,43.80
2017-07-18T14:09:11.901Z,45.00
2017-07-18T14:11:50.675Z,43.90
2017-07-18T14:14:24.722Z,44.10
2017-07-18T14:16:58.927Z,43.00
2017-07-18T14:19:36.922Z,44.30
2017-07-18T14:22:11.482Z,44.30
2017-07-18T14:24:51.397Z,44.50
2017-07-18T14:27:28.400Z,45.00
2017-07-18T14:30:20.207Z,43.80
2017-07-18T14:32:56.436Z,43.70
2017-07-18T14:35:34.554Z,44.50
2017-07-18T14:40:58.422Z,43.80
2017-07-18T14:43:36.165Z,43.20
2017-07-18T14:46:10.777Z,44.00
2017-07-18T14:48:45.372Z,46.40
2017-07-18T14:51:20.883Z,46.00
2017-07-18T14:54:00.304Z,45.10
2017-07-18T14:56:44.814Z,46.10
2017-07-18T14:59:32.332Z,46.00
2017-07-18T15:02:08.941Z,45.80
2017-07-18T15:04:46.179Z,45.70
2017-07-18T15:07:25.647Z,47.90
2017-07-18T15:12:53.046Z,47.60
2017-07-18T15:15:30.517Z,47.20
2017-07-18T15:18:08.005Z,47.20
2017-07-18T15:20:44.924Z,49.10
2017-07-18T15:23:22.143Z,50.20
2017-07-18T15:25:57.917Z,48.30
2017-07-18T15:28:33.553Z,47.70
2017-07-18T15:31:09.312Z,48.50
2017-07-18T15:33:45.400Z,48.40
2017-07-18T15:36:19.525Z,47.50
2017-07-18T15:38:54.473Z,48.50
2017-07-18T15:41:33.115Z,47.60
2017-07-18T15:44:09.889Z,47.40
2017-07-18T15:46:51.344Z,48.80
2017-07-18T15:54:57.692Z,50.40
2017-07-18T15:57:31.764Z,51.10
2017-07-18T16:00:06.910Z,50.90
2017-07-18T16:02:43.669Z,52.10
2017-07-18T16:05:18.468Z,52.00
2017-07-18T16:07:53.017Z,51.70
2017-07-18T16:10:26.751Z,53.70
2017-07-18T16:13:01.570Z,54.70
2017-07-18T16:15:35.536Z,54.60
2017-07-18T16:18:10.118Z,55.30
2017-07-18T16:20:46.330Z,54.90
2017-07-18T16:23:21.009Z,54.00
2017-07-18T16:25:54.601Z,54.50
2017-07-18T16:28:29.942Z,55.50
2017-07-18T16:31:04.739Z,55.40
2017-07-18T16:33:38.683Z,56.70
2017-07-18T16:36:12.356Z,57.80
2017-07-18T16:38:46.201Z,58.50
2017-07-18T16:41:20.005Z,58.90
2017-07-18T16:43:54.136Z,58.80
2017-07-18T16:46:28.837Z,58.60
2017-07-18T16:49:02.726Z,58.80
2017-07-18T16:51:37.395Z,59.00
2017-07-18T16:54:11.223Z,58.80
2017-07-18T16:56:46.127Z,58.70
2017-07-18T16:59:21.115Z,59.20
2017-07-18T17:01:55.137Z,58.90
2017-07-18T17:04:29.676Z,58.50
2017-07-18T17:07:04.129Z,59.50
2017-07-18T17:09:38.670Z,59.80
2017-07-18T17:12:12.450Z,60.40
2017-07-18T17:17:44.736Z,60.60
2017-07-18T17:20:18.525Z,60.00
2017-07-18T17:22:53.270Z,62.70
2017-07-18T17:25:27.570Z,62.50
2017-07-18T17:28:02.382Z,61.00
2017-07-18T17:30:36.417Z,60.20
2017-07-18T17:33:10.158Z,59.80
2017-07-18T17:35:44.225Z,60.60
2017-07-18T17:38:18.050Z,62.00
2017-07-18T17:40:52.538Z,62.20
2017-07-18T17:43:26.859Z,61.50
2017-07-18T17:46:00.696Z,59.60
2017-07-18T17:48:34.581Z,58.70
2017-07-18T17:51:08.286Z,58.70
2017-07-18T17:53:42.068Z,56.40
2017-07-18T17:56:15.722Z,56.90
2017-07-18T17:58:49.522Z,55.80
2017-07-18T18:01:23.362Z,55.40
2017-07-18T18:03:57.065Z,54.80
2017-07-18T18:06:31.155Z,55.00
2017-07-18T18:09:04.934Z,55.10
2017-07-18T18:11:40.202Z,55.00
2017-07-18T18:14:16.252Z,55.10
2017-07-18T18:16:50.277Z,55.60
2017-07-18T18:19:24.227Z,55.70
2017-07-18T18:21:57.972Z,56.50
2017-07-18T18:24:31.622Z,56.70
2017-07-18T18:27:05.617Z,57.10
2017-07-18T18:29:40.465Z,57.60
2017-07-18T18:32:14.407Z,58.00
2017-07-18T18:34:48.255Z,58.10
2017-07-18T18:37:22.666Z,58.40
2017-07-18T18:39:57.071Z,59.30
2017-07-18T18:42:31.096Z,60.10
2017-07-18T18:45:06.288Z,61.10
2017-07-18T18:47:45.910Z,62.20
2017-07-18T18:50:19.915Z,61.90
2017-07-18T18:52:56.190Z,61.70
2017-07-18T18:55:32.817Z,61.50
2017-07-18T18:58:06.800Z,61.80
2017-07-18T19:00:41.858Z,61.60
2017-07-18T19:03:18.033Z,61.10
2017-07-18T19:05:51.869Z,60.10
2017-07-18T19:08:25.731Z,57.90
2017-07-18T19:10:59.553Z,57.40
2017-07-18T19:13:33.218Z,57.70
2017-07-18T19:16:08.732Z,56.00
2017-07-18T19:21:23.290Z,56.10
2017-07-18T19:23:57.148Z,56.00
2017-07-18T19:26:30.920Z,55.20
2017-07-18T19:29:04.728Z,55.00
2017-07-18T19:31:38.940Z,55.30
2017-07-18T19:34:13.273Z,55.90
2017-07-18T19:36:47.147Z,55.90
2017-07-18T19:39:21.890Z,56.10
2017-07-18T19:41:55.759Z,56.00
2017-07-18T19:44:30.012Z,56.00
2017-07-18T19:47:03.724Z,55.90
2017-07-18T19:49:38.454Z,56.70
2017-07-18T19:52:13.060Z,56.30
2017-07-18T19:54:46.950Z,56.10
2017-07-18T19:57:21.529Z,55.10
2017-07-18T19:59:55.253Z,55.00
2017-07-18T20:05:10.348Z,53.30
2017-07-18T20:07:43.956Z,54.20
2017-07-18T20:10:17.974Z,52.90
2017-07-18T20:12:51.878Z,53.50
2017-07-18T20:15:25.815Z,53.80
2017-07-18T20:17:59.671Z,52.20
2017-07-18T20:20:36.285Z,51.60
2017-07-18T20:23:10.137Z,51.50
2017-07-18T20:25:44.044Z,52.00
2017-07-18T20:28:17.928Z,51.00
2017-07-18T20:30:51.593Z,51.50
2017-07-18T20:33:25.258Z,52.00
2017-07-18T20:35:59.724Z,51.60
2017-07-18T20:38:33.463Z,50.30
2017-07-18T20:41:07.183Z,51.20
2017-07-18T20:43:40.912Z,51.10
2017-07-18T20:46:15.558Z,51.20
2017-07-18T20:48:49.841Z,51.60
2017-07-18T20:51:25.102Z,51.20
2017-07-18T20:53:59.642Z,50.80
2017-07-18T20:56:33.761Z,50.70
2017-07-18T21:02:06.098Z,49.20
2017-07-18T21:04:39.974Z,49.60
2017-07-18T21:07:14.551Z,49.60
2017-07-18T21:09:49.841Z,49.50
2017-07-18T21:12:23.852Z,49.60
2017-07-18T21:14:58.624Z,49.40
2017-07-18T21:17:32.984Z,49.90
2017-07-18T21:20:08.038Z,49.70
2017-07-18T21:22:41.973Z,49.50
2017-07-18T21:25:16.049Z,48.90
2017-07-18T21:27:51.277Z,48.70
2017-07-18T21:30:25.928Z,48.70
2017-07-18T21:32:59.655Z,48.40
2017-07-18T21:35:33.442Z,49.00
2017-07-18T21:38:07.409Z,49.00
2017-07-18T21:40:41.352Z,48.60
2017-07-18T21:43:15.394Z,49.20
2017-07-18T21:45:49.236Z,48.60
2017-07-18T21:51:13.039Z,47.10
2017-07-18T21:53:47.007Z,46.90
2017-07-18T21:56:21.460Z,47.00
2017-07-18T21:58:55.486Z,46.70
2017-07-18T22:01:30.116Z,47.60
2017-07-18T22:04:04.046Z,48.80
2017-07-18T22:06:37.978Z,48.90
2017-07-18T22:09:12.156Z,49.20
2017-07-18T22:11:45.951Z,48.60
2017-07-18T22:14:19.797Z,48.40
2017-07-18T22:16:54.959Z,46.50
2017-07-18T22:19:29.380Z,46.40
2017-07-18T22:22:03.273Z,47.20
2017-07-18T22:24:37.356Z,47.80
2017-07-18T22:27:12.292Z,48.10
2017-07-18T22:29:46.962Z,48.70
2017-07-18T22:32:21.455Z,50.00
2017-07-18T22:34:55.423Z,49.20
2017-07-18T22:37:30.084Z,49.70
2017-07-18T22:40:03.939Z,50.60
2017-07-18T22:42:37.745Z,51.10
2017-07-18T22:45:11.694Z,51.80
2017-07-18T22:47:45.605Z,52.30
2017-07-18T22:50:19.515Z,52.80
2017-07-18T22:52:55.066Z,53.30
2017-07-18T22:55:28.988Z,53.50
2017-07-18T22:58:03.344Z,52.30
2017-07-18T23:00:37.322Z,52.40
2017-07-18T23:03:11.229Z,52.60
2017-07-18T23:05:45.166Z,52.40
2017-07-18T23:08:21.415Z,52.80
2017-07-18T23:10:56.494Z,52.70
2017-07-18T23:13:30.393Z,52.50
2017-07-18T23:16:07.188Z,52.40
2017-07-18T23:18:48.239Z,53.60
2017-07-18T23:21:22.937Z,53.80
2017-07-18T23:23:57.109Z,54.10
2017-07-18T23:26:35.350Z,54.50
2017-07-18T23:29:09.989Z,55.00
2017-07-18T23:31:44.649Z,55.10
2017-07-18T23:34:18.470Z,54.50
2017-07-18T23:36:52.498Z,54.50
2017-07-18T23:39:27.545Z,54.60
2017-07-18T23:42:01.654Z,54.00
2017-07-18T23:44:35.492Z,54.00
2017-07-18T23:47:09.164Z,54.30
2017-07-18T23:49:43.104Z,54.00
2017-07-18T23:52:17.293Z,53.90
2017-07-18T23:54:51.166Z,54.00
2017-07-18T23:57:25.189Z,54.20
